Raddle, Illinois
Current Conditions -  °F | °C
As of 11:52 PM on Tuesday 27 Jan 2015 (Local Time) from KMDH Reporting Station
Clear Clear  
Wind Chill: 24°   Ceiling: Unl
Heat Index: 29°   Visibility: 9mi
Dew Point: 25°   Wind: 5mph
Humidity: 85%   Direction: 70°ENE
Pressure: 30.26"   Gusts: NA
Location:  37.7458°N, 89.5469°W
Report Text: KMDH 280552Z AUTO 07004KT 9SM CLR M02/M04 A3026 RMK AO2 SLP250 T10171039 10028 21028 400611028 50004
Loading
Personal Weather Stations






























Interactive Weather Map New forecast layout! Learn more

10-Day Weather Forecast

Advertisements
Track Severe Weather on mobile